Time;durP1;ratioP1;P1;durP2;ratioP2;P2;SDS_P1;SDS_P2;PMS_P1;PMS_P2;Temp;Humidity;BMP_temperature;BMP_pressure;BME280_temperature;BME280_humidity;BME280_pressure;Samples;Min_cycle;Max_cycle;Signal;HPM_P1;HPM_P2
2023/01/20 00:01:42;;;;;;;15.00;9.93;;;0.50;99.90;;;;;;5048431;28;20037;-51
2023/01/20 00:04:08;;;;;;;14.65;10.43;;;0.50;99.90;;;;;;5047287;28;20549;-51
2023/01/20 00:06:34;;;;;;;17.20;10.63;;;0.50;99.90;;;;;;5048999;28;20160;-51
2023/01/20 00:09:02;;;;;;;13.30;8.80;;;0.50;99.90;;;;;;5047990;28;20060;-51
2023/01/20 00:11:28;;;;;;;15.25;10.27;;;0.40;99.90;;;;;;5048898;28;20233;-51
2023/01/20 00:13:56;;;;;;;16.00;12.05;;;0.50;99.90;;;;;;5047558;28;20133;-54
2023/01/20 00:16:22;;;;;;;18.65;12.52;;;0.40;99.90;;;;;;5048410;28;20410;-51
2023/01/20 00:18:48;;;;;;;20.15;13.50;;;0.40;99.90;;;;;;5045534;28;20041;-54
2023/01/20 00:21:15;;;;;;;26.60;17.10;;;0.40;99.90;;;;;;5048782;28;20092;-51
2023/01/20 00:23:41;;;;;;;25.92;14.00;;;0.40;99.90;;;;;;5047832;28;20539;-53
2023/01/20 00:26:12;;;;;;;21.13;14.40;;;0.50;99.90;;;;;;5048440;28;20438;-52
2023/01/20 00:28:38;;;;;;;19.85;13.77;;;0.50;99.90;;;;;;5045652;28;20491;-51
2023/01/20 00:31:14;;;;;;;22.65;15.32;;;0.50;99.90;;;;;;5048421;28;20049;-54
2023/01/20 00:33:39;;;;;;;25.85;16.88;;;0.50;99.90;;;;;;5047514;28;20467;-51
2023/01/20 00:36:05;;;;;;;31.93;18.53;;;0.60;99.90;;;;;;5048414;28;20075;-51
2023/01/20 00:38:31;;;;;;;29.83;19.13;;;0.60;99.90;;;;;;5047903;28;20040;-51
2023/01/20 00:40:57;;;;;;;34.73;19.80;;;0.60;99.90;;;;;;5048561;28;20033;-51
2023/01/20 00:43:22;;;;;;;35.27;21.23;;;0.70;99.90;;;;;;5047503;28;20083;-51
2023/01/20 00:45:48;;;;;;;32.37;20.40;;;0.70;99.90;;;;;;5047941;28;20528;-52
2023/01/20 00:48:13;;;;;;;35.47;20.63;;;0.80;99.90;;;;;;5047860;28;20060;-50
2023/01/20 00:50:39;;;;;;;35.40;21.93;;;0.80;99.90;;;;;;5048285;28;20037;-51
2023/01/20 00:53:04;;;;;;;38.13;21.50;;;0.80;99.90;;;;;;5047298;28;20103;-50
2023/01/20 00:55:30;;;;;;;35.07;20.00;;;0.90;99.90;;;;;;5047466;28;20037;-51
2023/01/20 00:57:55;;;;;;;35.87;19.90;;;0.90;99.90;;;;;;5047347;28;20533;-50
2023/01/20 01:00:21;;;;;;;36.13;20.67;;;0.90;99.90;;;;;;5048495;28;20044;-52
2023/01/20 01:02:47;;;;;;;32.80;18.97;;;0.90;99.90;;;;;;5048118;28;20033;-51
2023/01/20 01:05:12;;;;;;;28.33;18.97;;;0.90;99.90;;;;;;5047438;28;20033;-50
2023/01/20 01:07:38;;;;;;;28.00;18.27;;;1.00;99.90;;;;;;5046903;28;20437;-51
2023/01/20 01:10:04;;;;;;;30.13;18.30;;;0.90;99.90;;;;;;5046423;28;20033;-53
2023/01/20 01:12:29;;;;;;;28.33;18.85;;;1.00;99.90;;;;;;5046675;28;20051;-51
2023/01/20 01:14:55;;;;;;;26.73;16.57;;;1.00;99.90;;;;;;5046920;28;20047;-51
2023/01/20 01:17:22;;;;;;;29.80;18.47;;;1.00;99.90;;;;;;5047463;28;20111;-51
2023/01/20 01:19:50;;;;;;;24.50;15.82;;;1.10;99.90;;;;;;5047905;28;20041;-50
2023/01/20 01:22:16;;;;;;;20.52;14.43;;;1.10;99.90;;;;;;5047267;28;20049;-49
2023/01/20 01:24:44;;;;;;;19.97;14.00;;;1.10;99.90;;;;;;5044148;28;20037;-50
2023/01/20 01:27:11;;;;;;;21.88;14.98;;;1.10;99.90;;;;;;5049730;28;20037;-53
2023/01/20 01:29:37;;;;;;;23.50;15.27;;;1.10;99.90;;;;;;5052813;28;20060;-51
2023/01/20 01:32:03;;;;;;;23.50;15.40;;;1.10;99.90;;;;;;5052606;28;20041;-52
2023/01/20 01:34:29;;;;;;;22.20;13.73;;;1.10;99.90;;;;;;5050523;28;20548;-51
2023/01/20 01:36:55;;;;;;;24.67;15.15;;;1.10;99.90;;;;;;5051485;28;20049;-53
2023/01/20 01:39:21;;;;;;;30.42;15.20;;;1.10;99.90;;;;;;5052972;28;20041;-50
2023/01/20 01:41:47;;;;;;;25.27;16.55;;;1.10;99.90;;;;;;5051306;28;20063;-51
2023/01/20 01:44:13;;;;;;;21.93;15.60;;;1.10;99.90;;;;;;5051902;28;20033;-51
2023/01/20 01:46:40;;;;;;;24.17;14.95;;;1.20;99.90;;;;;;5052066;28;20494;-51
2023/01/20 01:49:16;;;;;;;18.95;13.48;;;1.10;99.90;;;;;;5052332;28;20048;-51
2023/01/20 01:51:48;;;;;;;22.53;14.53;;;1.10;99.90;;;;;;5052062;28;20048;-51
2023/01/20 01:54:21;;;;;;;18.30;12.38;;;1.10;99.90;;;;;;5051480;28;20037;-50
2023/01/20 01:56:48;;;;;;;20.35;13.77;;;1.10;99.90;;;;;;5052154;28;20044;-53
2023/01/20 01:59:15;;;;;;;21.33;14.23;;;1.10;99.90;;;;;;5052071;28;20036;-52
2023/01/20 02:01:45;;;;;;;21.20;14.02;;;1.10;99.90;;;;;;5051995;28;20414;-51
2023/01/20 02:04:20;;;;;;;19.40;13.43;;;1.10;99.90;;;;;;5051342;28;20055;-51
2023/01/20 02:06:52;;;;;;;22.08;14.77;;;1.00;99.90;;;;;;5052856;28;20041;-52
2023/01/20 02:09:18;;;;;;;20.23;13.68;;;1.10;99.90;;;;;;5032204;28;20155;-50
2023/01/20 02:11:52;;;;;;;23.58;15.88;;;1.10;99.90;;;;;;5034969;28;20129;-54
2023/01/20 02:14:24;;;;;;;19.90;14.00;;;1.10;99.90;;;;;;5049617;28;20387;-50
2023/01/20 02:17:04;;;;;;;20.73;13.70;;;1.10;99.90;;;;;;5050535;28;20391;-52
2023/01/20 02:19:51;;;;;;;20.70;15.55;;;1.10;99.90;;;;;;5051534;28;20103;-50
2023/01/20 02:22:50;;;;;;;21.63;13.97;;;1.10;99.90;;;;;;5051980;28;20041;-52
2023/01/20 02:25:36;;;;;;;20.88;13.13;;;1.10;99.90;;;;;;5035524;28;20326;-51
2023/01/20 02:28:44;;;;;;;20.45;14.27;;;1.10;99.90;;;;;;5016909;28;20059;-53
2023/01/20 02:31:43;;;;;;;19.33;12.20;;;1.10;99.90;;;;;;5051007;28;20131;-51
2023/01/20 02:34:15;;;;;;;22.85;13.55;;;1.10;99.90;;;;;;5044975;28;20481;-52
2023/01/20 02:36:56;;;;;;;18.25;13.23;;;1.10;99.90;;;;;;5051157;28;20052;-54
2023/01/20 02:39:30;;;;;;;19.70;13.13;;;1.10;99.90;;;;;;5050961;28;20045;-51
2023/01/20 02:42:05;;;;;;;20.55;13.50;;;1.10;99.90;;;;;;5051305;28;20132;-50
2023/01/20 02:44:50;;;;;;;20.55;13.95;;;1.10;99.90;;;;;;5050105;28;20037;-51
2023/01/20 02:47:19;;;;;;;17.73;12.25;;;1.10;99.90;;;;;;5050506;28;20502;-51
2023/01/20 02:49:52;;;;;;;18.13;13.32;;;1.10;99.90;;;;;;5050366;28;20051;-51
2023/01/20 02:52:30;;;;;;;18.30;12.40;;;1.10;99.90;;;;;;5051433;28;20140;-50
2023/01/20 02:55:00;;;;;;;15.35;12.32;;;1.20;99.90;;;;;;5044569;28;20033;-52
2023/01/20 02:57:46;;;;;;;18.55;11.45;;;1.10;99.90;;;;;;5050955;28;20037;-52
2023/01/20 03:00:21;;;;;;;15.50;11.50;;;1.10;99.90;;;;;;5050431;28;20047;-50
2023/01/20 03:02:50;;;;;;;12.77;9.68;;;1.10;99.90;;;;;;5051421;28;20056;-51
2023/01/20 03:05:25;;;;;;;14.27;9.95;;;1.10;99.90;;;;;;5049665;28;20028;-50
2023/01/20 03:07:51;;;;;;;17.50;11.68;;;1.10;99.90;;;;;;5049456;28;20119;-51
2023/01/20 03:10:21;;;;;;;14.68;10.23;;;1.10;99.90;;;;;;5048418;28;20080;-52
2023/01/20 03:13:04;;;;;;;15.05;10.52;;;1.10;99.90;;;;;;5049084;28;20136;-51
2023/01/20 03:15:36;;;;;;;10.95;9.15;;;1.10;99.90;;;;;;5050616;28;20397;-50
2023/01/20 03:18:02;;;;;;;13.52;10.63;;;1.10;99.90;;;;;;5050514;28;20087;-51
2023/01/20 03:20:27;;;;;;;16.40;11.80;;;1.10;99.90;;;;;;5050727;28;20041;-52
2023/01/20 03:22:53;;;;;;;12.93;9.97;;;1.10;99.90;;;;;;5050627;28;20698;-51
2023/01/20 03:25:19;;;;;;;13.20;10.17;;;1.10;99.90;;;;;;5049482;28;20525;-51
2023/01/20 03:27:44;;;;;;;14.87;11.30;;;1.10;99.90;;;;;;5050398;28;20045;-51
2023/01/20 03:30:14;;;;;;;13.90;10.75;;;1.10;99.90;;;;;;5050503;28;20049;-51
2023/01/20 03:32:43;;;;;;;14.32;10.25;;;1.10;99.90;;;;;;5049408;28;20474;-52
2023/01/20 03:35:09;;;;;;;15.20;9.63;;;1.10;99.90;;;;;;5049403;28;20465;-52
2023/01/20 03:37:35;;;;;;;12.57;9.82;;;1.10;99.90;;;;;;5049730;28;20128;-51
2023/01/20 03:40:01;;;;;;;13.98;10.45;;;1.10;99.90;;;;;;5050227;28;20124;-52
2023/01/20 03:42:56;;;;;;;16.83;10.57;;;1.10;99.90;;;;;;5050703;28;20041;-52
2023/01/20 03:45:35;;;;;;;13.15;10.20;;;1.10;99.90;;;;;;5049797;28;20506;-51
2023/01/20 03:48:37;;;;;;;14.32;10.35;;;1.10;99.90;;;;;;5050293;28;20051;-52
2023/01/20 03:51:24;;;;;;;13.77;10.30;;;1.00;99.90;;;;;;5048407;28;20049;-52
2023/01/20 03:54:05;;;;;;;13.63;10.00;;;1.10;99.90;;;;;;5049420;28;20045;-51
2023/01/20 03:56:55;;;;;;;16.20;11.45;;;1.00;99.90;;;;;;5049209;28;20041;-51
2023/01/20 03:59:22;;;;;;;15.63;11.02;;;1.00;99.90;;;;;;5043488;28;20080;-50
2023/01/20 04:01:48;;;;;;;16.50;11.23;;;1.00;99.90;;;;;;5049961;28;20086;-51
2023/01/20 04:04:17;;;;;;;17.52;12.98;;;1.00;99.90;;;;;;5049235;28;20088;-51
2023/01/20 04:06:46;;;;;;;19.10;12.38;;;1.00;99.90;;;;;;5047975;28;20112;-49
2023/01/20 04:09:25;;;;;;;15.40;10.50;;;1.00;99.90;;;;;;5049832;28;20414;-50
2023/01/20 04:11:51;;;;;;;13.50;10.50;;;1.00;99.90;;;;;;5049500;28;20051;-51
2023/01/20 04:14:16;;;;;;;16.70;11.05;;;1.00;99.90;;;;;;5049129;28;20037;-51
2023/01/20 04:16:48;;;;;;;15.90;11.63;;;1.00;99.90;;;;;;5049414;28;20041;-51
2023/01/20 04:19:13;;;;;;;18.25;12.13;;;1.00;99.90;;;;;;5050048;28;20222;-51
2023/01/20 04:21:52;;;;;;;18.47;11.33;;;1.00;99.90;;;;;;5049150;28;20033;-50
2023/01/20 04:24:23;;;;;;;13.52;9.82;;;1.00;99.90;;;;;;5048023;28;20482;-51
2023/01/20 04:26:49;;;;;;;13.60;9.95;;;1.00;99.90;;;;;;5049250;28;20075;-52
2023/01/20 04:29:14;;;;;;;15.60;11.10;;;1.00;99.90;;;;;;5048456;28;20068;-51
2023/01/20 04:31:40;;;;;;;14.83;10.83;;;1.00;99.90;;;;;;5049085;28;20091;-53
2023/01/20 04:34:06;;;;;;;17.27;11.27;;;1.00;99.90;;;;;;5047949;28;20166;-52
2023/01/20 04:36:32;;;;;;;16.70;12.20;;;1.00;99.90;;;;;;5049752;28;20641;-51
2023/01/20 04:38:57;;;;;;;14.33;11.03;;;1.00;99.90;;;;;;5048964;28;20033;-51
2023/01/20 04:41:23;;;;;;;19.20;11.83;;;1.00;99.90;;;;;;5049724;28;20159;-53
2023/01/20 04:43:48;;;;;;;18.97;12.40;;;1.00;99.90;;;;;;5048794;28;20631;-52
2023/01/20 04:46:15;;;;;;;20.40;12.87;;;1.00;99.90;;;;;;5049255;28;20052;-49
2023/01/20 04:48:41;;;;;;;18.08;12.93;;;1.00;99.90;;;;;;5048664;28;20375;-52
2023/01/20 04:51:07;;;;;;;20.88;13.38;;;1.00;99.90;;;;;;5048084;28;20040;-51
2023/01/20 04:53:33;;;;;;;26.13;16.33;;;1.00;99.90;;;;;;5047781;28;20124;-52
2023/01/20 04:55:59;;;;;;;22.60;15.25;;;1.00;99.90;;;;;;5049447;28;20033;-51
2023/01/20 04:58:25;;;;;;;20.98;14.45;;;1.00;99.90;;;;;;5048745;28;20032;-51
2023/01/20 05:00:51;;;;;;;24.92;17.35;;;1.00;99.90;;;;;;5050401;28;20041;-50
2023/01/20 05:03:16;;;;;;;26.97;15.17;;;1.10;99.90;;;;;;5052152;28;20033;-51
2023/01/20 05:05:42;;;;;;;23.17;14.13;;;1.00;99.90;;;;;;5053427;28;20039;-51
2023/01/20 05:08:07;;;;;;;27.37;16.93;;;1.10;99.90;;;;;;5052726;28;20107;-51
2023/01/20 05:10:34;;;;;;;23.73;14.83;;;1.00;99.90;;;;;;5053450;28;20044;-51
2023/01/20 05:13:00;;;;;;;26.42;17.08;;;1.00;99.90;;;;;;5052374;28;20409;-51
2023/01/20 05:15:26;;;;;;;23.92;15.43;;;1.00;99.90;;;;;;5053210;28;20084;-50
2023/01/20 05:17:52;;;;;;;26.05;15.65;;;1.00;99.90;;;;;;5052118;28;20045;-51
2023/01/20 05:20:19;;;;;;;26.40;15.57;;;1.00;99.90;;;;;;5053586;28;20033;-51
2023/01/20 05:22:45;;;;;;;25.23;16.02;;;1.00;99.90;;;;;;5053397;28;20037;-51
2023/01/20 05:25:12;;;;;;;26.75;17.30;;;1.00;99.90;;;;;;5051635;28;20090;-51
2023/01/20 05:27:37;;;;;;;30.88;18.27;;;1.00;99.90;;;;;;5053245;28;20076;-51
2023/01/20 05:30:05;;;;;;;31.17;19.37;;;1.00;99.90;;;;;;5052453;28;20067;-50
2023/01/20 05:32:30;;;;;;;29.60;18.40;;;1.00;99.90;;;;;;5052860;28;20040;-53
2023/01/20 05:34:56;;;;;;;30.27;18.40;;;1.00;99.90;;;;;;5051222;28;20056;-51
2023/01/20 05:37:21;;;;;;;33.53;19.87;;;1.00;99.90;;;;;;5051954;28;20059;-51
2023/01/20 05:39:47;;;;;;;33.07;18.93;;;1.00;99.90;;;;;;5052071;28;20037;-52
2023/01/20 05:42:12;;;;;;;31.87;21.30;;;1.00;99.90;;;;;;5052669;28;20399;-51
2023/01/20 05:44:38;;;;;;;29.37;17.07;;;0.90;99.90;;;;;;5050816;28;20025;-50
2023/01/20 05:47:04;;;;;;;32.17;19.40;;;1.00;99.90;;;;;;5051623;28;20048;-49
2023/01/20 05:49:29;;;;;;;45.87;22.63;;;1.00;99.90;;;;;;5052306;28;20498;-51
2023/01/20 05:51:55;;;;;;;33.40;20.07;;;1.00;99.90;;;;;;5052531;28;20113;-51
2023/01/20 05:54:20;;;;;;;39.53;21.47;;;1.00;99.90;;;;;;5051253;28;20041;-52
2023/01/20 05:56:47;;;;;;;36.63;21.30;;;1.00;99.90;;;;;;5052143;28;20047;-50
2023/01/20 05:59:13;;;;;;;38.55;21.90;;;1.00;99.90;;;;;;5052008;28;20410;-52
2023/01/20 06:01:39;;;;;;;35.37;21.63;;;1.00;99.90;;;;;;5051948;28;20036;-50
2023/01/20 06:04:05;;;;;;;33.78;21.75;;;1.00;99.90;;;;;;5049942;28;20045;-51
2023/01/20 06:06:31;;;;;;;38.83;22.08;;;1.00;99.90;;;;;;5052137;28;20041;-51
2023/01/20 06:08:56;;;;;;;43.23;24.20;;;1.00;99.90;;;;;;5051600;28;20120;-52
2023/01/20 06:11:22;;;;;;;39.13;23.33;;;1.00;99.90;;;;;;5052230;28;20083;-51
2023/01/20 06:13:48;;;;;;;36.80;22.33;;;1.00;99.90;;;;;;5050022;28;20450;-50
2023/01/20 06:16:16;;;;;;;45.00;23.95;;;1.00;99.90;;;;;;5050107;28;20506;-52
2023/01/20 06:18:41;;;;;;;40.75;23.17;;;1.00;99.90;;;;;;5051397;28;20040;-51
2023/01/20 06:21:07;;;;;;;43.53;23.77;;;1.00;99.90;;;;;;5051499;28;20044;-53
2023/01/20 06:23:32;;;;;;;40.87;23.17;;;1.00;99.90;;;;;;5050943;28;20033;-51
2023/01/20 06:26:00;;;;;;;42.50;23.40;;;1.00;99.90;;;;;;5050634;28;20067;-53
2023/01/20 06:28:26;;;;;;;43.03;23.95;;;1.00;99.90;;;;;;5051101;28;20041;-50
2023/01/20 06:31:02;;;;;;;40.75;23.85;;;1.00;99.90;;;;;;5051476;28;20041;-51
2023/01/20 06:33:28;;;;;;;40.58;24.02;;;1.00;99.90;;;;;;5051023;28;20043;-53
2023/01/20 06:35:55;;;;;;;44.30;24.98;;;1.00;99.90;;;;;;5051454;28;20109;-50
2023/01/20 06:38:22;;;;;;;43.70;23.10;;;1.10;99.90;;;;;;5050243;28;20044;-53
2023/01/20 06:40:47;;;;;;;45.22;24.73;;;1.00;99.90;;;;;;5051405;28;20037;-51
2023/01/20 06:43:13;;;;;;;43.50;24.47;;;1.10;99.90;;;;;;5050443;28;20567;-52
2023/01/20 06:45:38;;;;;;;45.47;25.80;;;1.10;99.90;;;;;;5051245;28;20072;-52
2023/01/20 06:48:04;;;;;;;39.87;24.17;;;1.10;99.90;;;;;;5050430;28;20041;-53
2023/01/20 06:50:30;;;;;;;43.23;25.17;;;1.10;99.90;;;;;;5050382;28;20108;-51
2023/01/20 06:52:55;;;;;;;44.27;25.33;;;1.10;99.90;;;;;;5046103;28;20033;-51
2023/01/20 06:55:21;;;;;;;41.07;24.00;;;1.10;99.90;;;;;;5040936;28;20034;-52
2023/01/20 06:57:46;;;;;;;46.03;26.03;;;1.10;99.90;;;;;;5044570;28;20115;-51
2023/01/20 07:00:13;;;;;;;44.30;25.37;;;1.10;99.90;;;;;;5052046;28;20041;-51
2023/01/20 07:02:38;;;;;;;52.95;26.60;;;1.10;99.90;;;;;;5050545;28;20118;-51
2023/01/20 07:05:06;;;;;;;45.27;24.57;;;1.20;99.90;;;;;;5050020;28;20057;-51
2023/01/20 07:07:33;;;;;;;42.28;23.05;;;1.10;99.90;;;;;;5049683;28;20106;-50
2023/01/20 07:09:59;;;;;;;40.45;23.08;;;1.10;99.90;;;;;;5042263;28;20069;-51
2023/01/20 07:12:25;;;;;;;47.35;24.98;;;1.10;99.90;;;;;;5037189;28;20044;-49
2023/01/20 07:14:50;;;;;;;43.70;23.77;;;1.10;99.90;;;;;;5050175;28;20064;-51
2023/01/20 07:17:16;;;;;;;44.70;24.73;;;1.10;99.90;;;;;;5050110;28;20095;-51
2023/01/20 07:19:41;;;;;;;44.60;26.00;;;1.20;99.90;;;;;;5050878;28;20505;-50
2023/01/20 07:22:07;;;;;;;46.93;25.73;;;1.20;99.90;;;;;;5050628;28;20068;-50
2023/01/20 07:24:32;;;;;;;46.83;24.87;;;1.20;99.90;;;;;;5049208;28;20041;-52
2023/01/20 07:26:58;;;;;;;45.20;24.57;;;1.20;99.90;;;;;;5050021;28;20486;-51
2023/01/20 07:29:26;;;;;;;44.70;26.00;;;1.20;99.90;;;;;;5050750;28;20185;-51
2023/01/20 07:31:52;;;;;;;47.42;25.17;;;1.20;99.90;;;;;;5050738;28;20037;-50
2023/01/20 07:34:17;;;;;;;45.43;25.93;;;1.20;99.90;;;;;;5049167;28;20047;-51
2023/01/20 07:36:43;;;;;;;51.33;25.40;;;1.20;99.90;;;;;;5050481;28;20048;-52
2023/01/20 07:39:10;;;;;;;46.33;25.67;;;1.20;99.90;;;;;;5050614;28;20539;-52
2023/01/20 07:41:36;;;;;;;43.25;24.45;;;1.20;99.90;;;;;;5050303;28;20082;-52
2023/01/20 07:44:02;;;;;;;45.53;25.30;;;1.10;99.90;;;;;;5049477;28;20033;-50
2023/01/20 07:46:27;;;;;;;41.92;23.13;;;1.20;99.90;;;;;;5050244;28;20067;-50
2023/01/20 07:48:55;;;;;;;39.53;21.67;;;1.10;99.90;;;;;;5049682;28;20037;-52
2023/01/20 07:51:20;;;;;;;44.17;23.02;;;1.10;99.90;;;;;;5050515;28;20036;-51
2023/01/20 07:53:48;;;;;;;38.97;23.00;;;1.10;99.90;;;;;;5049215;28;20536;-54
2023/01/20 07:56:14;;;;;;;42.50;23.50;;;1.10;99.90;;;;;;5049416;28;20411;-52
2023/01/20 07:58:39;;;;;;;44.58;23.38;;;1.10;99.90;;;;;;5048879;28;20387;-53
2023/01/20 08:01:17;;;;;;;39.00;21.53;;;1.10;99.90;;;;;;5050113;28;20055;-51
2023/01/20 08:03:44;;;;;;;46.40;24.67;;;1.10;99.90;;;;;;5048046;28;20287;-51
2023/01/20 08:06:12;;;;;;;42.47;23.25;;;1.10;99.90;;;;;;5049456;28;20068;-51
2023/01/20 08:08:38;;;;;;;42.65;23.77;;;1.10;99.90;;;;;;5048120;28;20041;-51
2023/01/20 08:11:05;;;;;;;46.35;24.73;;;1.10;99.90;;;;;;5050317;28;20477;-51
2023/01/20 08:13:31;;;;;;;46.45;22.63;;;1.20;99.90;;;;;;5047953;28;20033;-50
2023/01/20 08:16:02;;;;;;;52.60;25.17;;;1.20;99.90;;;;;;5049207;28;20044;-53
2023/01/20 08:18:28;;;;;;;42.95;24.67;;;1.20;99.90;;;;;;5049091;28;20525;-51
2023/01/20 08:20:54;;;;;;;43.55;22.88;;;1.20;99.90;;;;;;5048845;28;20033;-50
2023/01/20 08:23:19;;;;;;;42.70;24.27;;;1.20;99.90;;;;;;5047799;28;20036;-50
2023/01/20 08:25:45;;;;;;;41.40;23.73;;;1.20;99.90;;;;;;5049111;28;20517;-53
2023/01/20 08:28:11;;;;;;;41.10;22.50;;;1.20;99.90;;;;;;5049316;28;20068;-51
2023/01/20 08:30:36;;;;;;;42.05;22.60;;;1.20;99.90;;;;;;5049094;28;20044;-51
2023/01/20 08:33:02;;;;;;;43.57;23.07;;;1.20;99.90;;;;;;5047164;28;20095;-51
2023/01/20 08:35:28;;;;;;;44.10;24.77;;;1.20;99.90;;;;;;5048195;28;20494;-51
2023/01/20 08:37:53;;;;;;;42.35;22.58;;;1.20;99.90;;;;;;5049196;28;20075;-52
2023/01/20 08:40:19;;;;;;;46.67;25.37;;;1.20;99.90;;;;;;5049657;28;20036;-51
2023/01/20 08:42:45;;;;;;;42.77;24.20;;;1.20;99.90;;;;;;5049402;28;20036;-53
2023/01/20 08:45:10;;;;;;;43.27;22.83;;;1.20;99.90;;;;;;5048057;28;20045;-52
2023/01/20 08:47:38;;;;;;;48.90;25.63;;;1.20;99.90;;;;;;5044292;28;20392;-51
2023/01/20 08:50:05;;;;;;;45.60;25.33;;;1.20;99.90;;;;;;5048516;28;20549;-51
2023/01/20 08:52:31;;;;;;;52.35;27.67;;;1.20;99.90;;;;;;5047557;28;20044;-54
2023/01/20 08:54:57;;;;;;;49.00;25.77;;;1.20;99.90;;;;;;5047382;28;20094;-51
2023/01/20 08:57:26;;;;;;;46.60;24.02;;;1.20;99.90;;;;;;5048010;28;20055;-50
2023/01/20 08:59:55;;;;;;;52.60;25.98;;;1.20;99.90;;;;;;5048824;28;20082;-49
2023/01/20 09:02:24;;;;;;;54.88;26.45;;;1.20;99.90;;;;;;5049093;28;20094;-50
2023/01/20 09:04:50;;;;;;;54.33;26.05;;;1.20;99.90;;;;;;5047338;28;20040;-52
2023/01/20 09:07:18;;;;;;;50.30;25.98;;;1.20;99.90;;;;;;5048600;28;20040;-51
2023/01/20 09:09:44;;;;;;;58.00;27.42;;;1.20;99.90;;;;;;5047731;28;20049;-50
2023/01/20 09:12:10;;;;;;;63.05;27.33;;;1.20;99.90;;;;;;5048080;28;20517;-52
2023/01/20 09:14:35;;;;;;;49.83;25.42;;;1.20;99.90;;;;;;5048058;28;20037;-51
2023/01/20 09:17:01;;;;;;;52.33;25.77;;;1.20;99.90;;;;;;5034435;28;20044;-52
2023/01/20 09:19:30;;;;;;;51.58;26.05;;;1.10;99.90;;;;;;5048820;28;20061;-51
2023/01/20 09:21:56;;;;;;;59.55;27.63;;;1.20;99.90;;;;;;5048570;28;20698;-52
2023/01/20 09:24:22;;;;;;;58.15;28.17;;;1.20;99.90;;;;;;5047876;28;20112;-51
2023/01/20 09:26:48;;;;;;;56.85;27.08;;;1.20;99.90;;;;;;5046921;28;20086;-51
2023/01/20 09:29:16;;;;;;;64.53;27.63;;;1.20;99.90;;;;;;5047646;28;20456;-55
2023/01/20 09:31:47;;;;;;;61.17;23.30;;;1.20;99.90;;;;;;5048270;28;20056;-51
2023/01/20 09:34:17;;;;;;;56.22;25.30;;;1.20;99.90;;;;;;5047446;28;20045;-55
2023/01/20 09:36:44;;;;;;;57.10;26.98;;;1.30;99.90;;;;;;5048662;28;20092;-53
2023/01/20 09:44:49;;;;;;;45.13;22.17;;;1.30;99.90;;;;;;5047590;28;20287;-51
2023/01/20 09:47:42;;;;;;;51.80;23.70;;;1.30;99.90;;;;;;5044607;28;20040;-50
2023/01/20 09:53:03;;;;;;;48.92;22.98;;;1.30;99.90;;;;;;5052037;28;20052;-52
2023/01/20 09:55:45;;;;;;;50.55;23.33;;;1.30;99.90;;;;;;5052216;28;20033;-50
2023/01/20 09:58:16;;;;;;;50.63;25.35;;;1.30;99.90;;;;;;5051528;28;20530;-54
2023/01/20 10:00:47;;;;;;;45.17;22.08;;;1.30;99.90;;;;;;5052116;28;20040;-51
2023/01/20 10:03:23;;;;;;;46.30;23.70;;;1.30;99.90;;;;;;5050730;28;20037;-51
2023/01/20 10:05:52;;;;;;;46.92;25.00;;;1.30;99.90;;;;;;5052466;28;20041;-50
2023/01/20 10:08:32;;;;;;;50.83;25.05;;;1.40;99.90;;;;;;5051241;28;20047;-52
2023/01/20 10:11:18;;;;;;;54.53;26.40;;;1.40;99.90;;;;;;5051316;28;20443;-53
2023/01/20 10:13:50;;;;;;;53.40;27.25;;;1.40;99.90;;;;;;5050644;28;20124;-54
2023/01/20 10:17:03;;;;;;;54.60;23.38;;;1.40;99.90;;;;;;5051117;28;20040;-50
2023/01/20 10:19:33;;;;;;;49.30;23.70;;;1.50;99.90;;;;;;5047863;28;20044;-51
2023/01/20 10:22:05;;;;;;;46.47;23.88;;;1.50;99.90;;;;;;5051544;28;20036;-50
2023/01/20 10:24:37;;;;;;;47.85;22.85;;;1.50;99.90;;;;;;5048947;28;20045;-51
2023/01/20 10:27:04;;;;;;;46.85;23.02;;;1.50;99.90;;;;;;5047867;28;20557;-52
2023/01/20 10:29:35;;;;;;;50.13;23.40;;;1.50;99.90;;;;;;5050975;28;20043;-51
2023/01/20 10:32:02;;;;;;;39.30;22.30;;;1.50;99.90;;;;;;5050537;28;20059;-50
2023/01/20 10:34:35;;;;;;;46.05;23.58;;;1.50;99.90;;;;;;5047334;28;20069;-50
2023/01/20 10:37:10;;;;;;;45.40;23.23;;;1.50;99.90;;;;;;5046521;28;20439;-51
2023/01/20 10:39:51;;;;;;;47.50;22.85;;;1.50;99.90;;;;;;5048086;28;20048;-51
2023/01/20 10:42:18;;;;;;;56.60;26.05;;;1.50;99.90;;;;;;5049181;28;20459;-51
2023/01/20 10:44:45;;;;;;;53.45;25.92;;;1.50;99.90;;;;;;5047964;28;20032;-52
2023/01/20 10:47:16;;;;;;;57.38;26.25;;;1.60;99.90;;;;;;5047270;28;20037;-52
2023/01/20 10:49:42;;;;;;;50.80;23.58;;;1.50;99.90;;;;;;5047420;28;20043;-50
2023/01/20 10:52:22;;;;;;;57.30;26.97;;;1.60;99.90;;;;;;5049397;28;20045;-51
2023/01/20 10:55:00;;;;;;;48.85;24.63;;;1.60;99.90;;;;;;5048713;28;20055;-51
2023/01/20 10:57:26;;;;;;;52.17;25.20;;;1.60;99.90;;;;;;5044624;28;20034;-50
2023/01/20 10:59:54;;;;;;;50.30;23.48;;;1.60;99.90;;;;;;5046643;28;20545;-50
2023/01/20 11:02:34;;;;;;;45.03;24.17;;;1.60;99.90;;;;;;5050231;28;20514;-51
2023/01/20 11:05:02;;;;;;;49.65;23.58;;;1.60;99.90;;;;;;5048933;28;20044;-52
2023/01/20 11:07:31;;;;;;;46.85;21.90;;;1.60;99.90;;;;;;5051048;28;20119;-51
2023/01/20 11:10:04;;;;;;;47.47;22.00;;;1.60;99.90;;;;;;5050530;28;20117;-51
2023/01/20 11:12:35;;;;;;;54.83;24.35;;;1.60;99.90;;;;;;5052933;28;20041;-52
2023/01/20 11:15:01;;;;;;;48.75;24.70;;;1.60;99.90;;;;;;5049677;28;20036;-54
2023/01/20 11:17:27;;;;;;;48.55;24.33;;;1.60;99.90;;;;;;5051431;28;20052;-51
2023/01/20 11:20:04;;;;;;;56.03;26.40;;;1.60;99.90;;;;;;5049642;28;20040;-52
2023/01/20 11:22:32;;;;;;;43.07;23.63;;;1.60;99.90;;;;;;5050021;28;20413;-50
2023/01/20 11:25:00;;;;;;;44.42;22.60;;;1.60;99.90;;;;;;5049026;28;20283;-52
2023/01/20 11:27:41;;;;;;;43.03;22.50;;;1.60;99.90;;;;;;5050539;28;20044;-51
2023/01/20 11:30:23;;;;;;;43.08;21.92;;;1.60;99.90;;;;;;5050409;28;20095;-51
2023/01/20 11:33:15;;;;;;;47.72;24.83;;;1.70;99.90;;;;;;5051152;28;20222;-51
2023/01/20 11:36:16;;;;;;;49.15;24.75;;;1.70;99.90;;;;;;5052785;28;20691;-51
2023/01/20 11:38:43;;;;;;;47.13;22.75;;;1.70;99.90;;;;;;5051067;28;20243;-51
2023/01/20 11:41:19;;;;;;;;;;;1.70;99.90;;;;;;5050205;28;20429;-51
2023/01/20 11:43:46;;;;;;;47.13;23.80;;;1.80;99.90;;;;;;5049567;28;19990;-51
2023/01/20 11:46:18;;;;;;;51.67;25.83;;;1.80;99.90;;;;;;5051006;28;20032;-51
2023/01/20 11:48:44;;;;;;;47.67;24.80;;;1.80;99.90;;;;;;5049689;28;20079;-51
2023/01/20 11:51:24;;;;;;;55.90;25.23;;;1.80;99.90;;;;;;5051007;28;20072;-50
2023/01/20 11:54:06;;;;;;;42.53;22.73;;;1.80;99.90;;;;;;5049151;28;20076;-51
2023/01/20 11:56:39;;;;;;;43.58;22.80;;;1.80;99.90;;;;;;5051471;28;20249;-52
2023/01/20 11:59:18;;;;;;;46.95;24.35;;;1.80;99.90;;;;;;5048620;28;20059;-53
2023/01/20 12:02:03;;;;;;;51.17;25.33;;;1.80;99.90;;;;;;5050574;28;20033;-52
2023/01/20 12:04:43;;;;;;;42.13;22.23;;;1.80;99.90;;;;;;5051059;28;20073;-51
2023/01/20 12:07:41;;;;;;;43.22;22.25;;;1.80;99.90;;;;;;5049197;28;20371;-51
2023/01/20 12:10:21;;;;;;;45.38;22.67;;;1.80;99.90;;;;;;5044175;28;20051;-50
2023/01/20 12:13:00;;;;;;;42.13;24.25;;;1.80;99.90;;;;;;5048386;28;20048;-52
2023/01/20 12:15:30;;;;;;;42.97;21.75;;;1.80;99.90;;;;;;5051848;28;20102;-53
2023/01/20 12:18:04;;;;;;;46.65;24.00;;;1.80;99.90;;;;;;5049589;28;20037;-51
2023/01/20 12:20:47;;;;;;;43.65;22.83;;;1.80;99.90;;;;;;5051853;28;20043;-51
2023/01/20 12:23:38;;;;;;;47.42;23.48;;;1.70;99.90;;;;;;5048781;28;20490;-54
2023/01/20 12:26:04;;;;;;;41.35;23.58;;;1.70;99.90;;;;;;5049752;28;20044;-52
2023/01/20 12:28:36;;;;;;;43.47;23.00;;;1.70;99.90;;;;;;5049536;28;20083;-51
2023/01/20 12:31:03;;;;;;;50.25;24.23;;;1.60;99.90;;;;;;5050847;28;20033;-52
2023/01/20 12:33:31;;;;;;;48.63;25.42;;;1.60;99.90;;;;;;5047626;28;20041;-52
2023/01/20 12:36:23;;;;;;;45.85;24.73;;;1.60;99.90;;;;;;5050768;28;20040;-53
2023/01/20 12:39:27;;;;;;;55.10;24.45;;;1.60;99.90;;;;;;5048978;28;20041;-52
2023/01/20 12:42:08;;;;;;;45.88;23.45;;;1.60;99.90;;;;;;4983980;28;20050;-49
2023/01/20 12:45:23;;;;;;;42.72;24.15;;;1.60;99.90;;;;;;4979781;28;20089;-50
2023/01/20 12:48:17;;;;;;;43.55;23.63;;;1.60;99.90;;;;;;4963998;28;20414;-52
2023/01/20 12:50:59;;;;;;;43.97;23.30;;;1.70;99.90;;;;;;4967220;28;21213;-51
2023/01/20 12:53:37;;;;;;;45.72;22.98;;;1.70;99.90;;;;;;4981894;28;20038;-52
2023/01/20 12:56:21;;;;;;;44.20;23.88;;;1.70;99.90;;;;;;4979613;28;20041;-52
2023/01/20 12:58:58;;;;;;;43.50;23.40;;;1.80;99.90;;;;;;4978366;28;20055;-51
2023/01/20 13:01:42;;;;;;;45.60;24.45;;;1.80;99.90;;;;;;4980745;28;20066;-51
2023/01/20 13:04:30;;;;;;;47.00;26.75;;;1.80;99.90;;;;;;4979447;28;20127;-51